createdAt,value
2018-03-29T00:00:33.567Z,99.90
2018-03-29T00:02:59.790Z,99.90
2018-03-29T00:05:26.768Z,99.90
2018-03-29T00:07:52.992Z,99.90
2018-03-29T00:10:19.989Z,99.90
2018-03-29T00:12:46.217Z,99.90
2018-03-29T00:15:12.408Z,99.90
2018-03-29T00:17:38.656Z,99.90
2018-03-29T00:20:05.652Z,99.90
2018-03-29T00:22:31.888Z,99.90
2018-03-29T00:24:58.106Z,99.90
2018-03-29T00:27:25.084Z,99.90
2018-03-29T00:29:51.412Z,99.90
2018-03-29T00:32:18.366Z,99.90
2018-03-29T00:34:45.358Z,99.90
2018-03-29T00:37:11.574Z,99.90
2018-03-29T00:39:38.547Z,99.90
2018-03-29T00:42:04.776Z,99.90
2018-03-29T00:44:31.033Z,99.90
2018-03-29T00:46:57.248Z,99.90
2018-03-29T00:57:58.325Z,99.90
2018-03-29T01:00:24.553Z,99.90
2018-03-29T01:02:50.762Z,99.90
2018-03-29T01:05:16.976Z,99.90
2018-03-29T01:07:43.199Z,99.90
2018-03-29T01:10:09.412Z,99.90
2018-03-29T01:12:35.651Z,99.90
2018-03-29T01:15:01.882Z,99.90
2018-03-29T01:17:28.858Z,99.90
2018-03-29T01:19:55.114Z,99.90
2018-03-29T01:22:21.342Z,99.90
2018-03-29T01:24:47.583Z,99.90
2018-03-29T01:27:13.804Z,99.90
2018-03-29T01:29:40.812Z,99.90
2018-03-29T01:32:07.054Z,99.90
2018-03-29T01:34:33.273Z,99.90
2018-03-29T01:36:59.550Z,99.90
2018-03-29T01:39:25.764Z,99.90
2018-03-29T01:41:51.984Z,99.90
2018-03-29T01:44:18.207Z,99.90
2018-03-29T01:46:45.166Z,99.90
2018-03-29T01:49:11.416Z,99.90
2018-03-29T01:51:37.639Z,99.90
2018-03-29T01:54:04.612Z,99.90
2018-03-29T01:56:30.955Z,99.90
2018-03-29T01:58:57.161Z,99.90
2018-03-29T02:01:23.407Z,99.90
2018-03-29T02:03:50.372Z,99.90
2018-03-29T02:06:17.338Z,99.90
2018-03-29T02:08:44.297Z,99.90
2018-03-29T02:11:11.235Z,99.90
2018-03-29T02:13:37.467Z,99.90
2018-03-29T02:16:03.687Z,99.90
2018-03-29T02:18:29.943Z,99.90
2018-03-29T02:20:56.150Z,99.90
2018-03-29T02:23:22.393Z,99.90
2018-03-29T02:25:48.611Z,99.90
2018-03-29T02:28:14.899Z,99.90
2018-03-29T02:30:48.077Z,99.90
2018-03-29T02:33:14.301Z,99.90
2018-03-29T02:35:40.536Z,99.90
2018-03-29T02:38:06.781Z,99.90
2018-03-29T02:40:33.014Z,99.90
2018-03-29T02:42:59.225Z,99.90
2018-03-29T02:45:25.437Z,99.90
2018-03-29T02:47:51.668Z,99.90
2018-03-29T02:50:17.890Z,99.90
2018-03-29T02:52:44.095Z,99.90
2018-03-29T02:55:10.372Z,99.90
2018-03-29T02:57:36.602Z,99.90
2018-03-29T03:00:02.859Z,99.90
2018-03-29T03:02:29.103Z,99.90
2018-03-29T03:04:55.302Z,99.90
2018-03-29T03:07:22.245Z,99.90
2018-03-29T03:09:49.219Z,99.90
2018-03-29T03:12:16.230Z,99.90
2018-03-29T03:14:42.454Z,99.90
2018-03-29T03:17:15.701Z,99.90
2018-03-29T03:19:41.954Z,99.90
2018-03-29T03:22:08.908Z,99.90
2018-03-29T03:24:35.901Z,99.90
2018-03-29T03:27:02.133Z,99.90
2018-03-29T03:29:28.398Z,99.90
2018-03-29T03:31:54.622Z,99.90
2018-03-29T03:34:20.850Z,99.90
2018-03-29T03:36:47.063Z,99.90
2018-03-29T03:39:13.266Z,99.90
2018-03-29T03:41:39.528Z,99.90
2018-03-29T03:44:05.734Z,99.90
2018-03-29T03:46:31.954Z,99.90
2018-03-29T03:48:58.228Z,99.90
2018-03-29T03:51:24.480Z,99.90
2018-03-29T03:53:50.710Z,99.90
2018-03-29T03:56:16.936Z,99.90
2018-03-29T03:58:43.172Z,99.90
2018-03-29T04:01:09.391Z,99.90
2018-03-29T04:03:35.610Z,99.90
2018-03-29T04:06:01.838Z,99.90
2018-03-29T04:08:28.056Z,99.90
2018-03-29T04:10:54.273Z,99.90
2018-03-29T04:13:20.496Z,99.90
2018-03-29T04:15:46.737Z,99.90
2018-03-29T04:18:12.966Z,99.90
2018-03-29T04:20:39.924Z,99.90
2018-03-29T04:23:06.888Z,99.90
2018-03-29T04:25:33.834Z,99.90
2018-03-29T04:28:00.834Z,99.90
2018-03-29T04:30:27.086Z,99.90
2018-03-29T04:32:54.076Z,99.90
2018-03-29T04:35:20.285Z,99.90
2018-03-29T04:37:46.509Z,99.90
2018-03-29T04:40:12.773Z,99.90
2018-03-29T04:42:38.995Z,99.90
2018-03-29T04:45:05.231Z,99.90
2018-03-29T04:47:31.443Z,99.90
2018-03-29T04:49:58.411Z,99.90
2018-03-29T04:52:24.613Z,99.90
2018-03-29T04:54:50.844Z,99.90
2018-03-29T04:57:17.084Z,99.90
2018-03-29T04:59:43.314Z,99.90
2018-03-29T05:02:09.580Z,99.90
2018-03-29T05:04:36.541Z,99.90
2018-03-29T05:07:03.553Z,99.90
2018-03-29T05:09:29.763Z,99.90
2018-03-29T05:11:56.001Z,99.90
2018-03-29T05:14:22.218Z,99.90
2018-03-29T05:16:48.435Z,99.90
2018-03-29T05:19:14.664Z,99.90
2018-03-29T05:21:40.877Z,99.90
2018-03-29T05:24:07.130Z,99.90
2018-03-29T05:26:38.277Z,99.90
2018-03-29T05:29:04.546Z,99.90
2018-03-29T05:31:30.801Z,99.90
2018-03-29T05:33:57.035Z,99.90
2018-03-29T05:36:23.258Z,99.90
2018-03-29T05:38:49.491Z,99.90
2018-03-29T05:41:15.736Z,99.90
2018-03-29T05:43:41.968Z,99.90
2018-03-29T05:46:08.153Z,99.90
2018-03-29T05:48:34.370Z,99.90
2018-03-29T05:51:00.584Z,99.90
2018-03-29T05:53:26.834Z,99.90
2018-03-29T05:55:53.082Z,99.90
2018-03-29T05:58:19.301Z,99.90
2018-03-29T06:00:45.526Z,99.90
2018-03-29T06:03:11.821Z,99.90
2018-03-29T06:05:38.722Z,99.90
2018-03-29T06:08:04.950Z,99.90
2018-03-29T06:10:31.914Z,99.90
2018-03-29T06:12:58.144Z,99.90
2018-03-29T06:15:25.128Z,99.90
2018-03-29T06:18:05.300Z,99.90
2018-03-29T06:20:31.509Z,99.90
2018-03-29T06:22:58.472Z,99.90
2018-03-29T06:25:25.452Z,99.90
2018-03-29T06:27:51.667Z,99.90
2018-03-29T06:30:18.630Z,99.90
2018-03-29T06:32:45.588Z,99.90
2018-03-29T06:35:12.573Z,99.90
2018-03-29T06:37:38.783Z,99.90
2018-03-29T06:40:05.780Z,99.90
2018-03-29T06:42:31.998Z,99.90
2018-03-29T06:44:58.214Z,99.90
2018-03-29T06:47:25.198Z,99.90
2018-03-29T06:49:51.408Z,99.90
2018-03-29T06:52:18.386Z,99.70
2018-03-29T06:54:44.646Z,99.70
2018-03-29T06:57:11.608Z,99.20
2018-03-29T06:59:37.849Z,99.20
2018-03-29T07:02:04.092Z,99.30
2018-03-29T07:04:30.327Z,99.50
2018-03-29T07:06:56.525Z,99.60
2018-03-29T07:09:23.536Z,99.90
2018-03-29T07:11:49.759Z,99.90
2018-03-29T07:14:15.994Z,99.90
2018-03-29T07:16:42.254Z,99.90
2018-03-29T07:19:08.505Z,99.60
2018-03-29T07:21:34.737Z,98.80
2018-03-29T07:24:00.935Z,97.90
2018-03-29T07:26:27.933Z,97.50
2018-03-29T07:28:54.197Z,97.50
2018-03-29T07:31:20.432Z,97.20
2018-03-29T07:33:46.661Z,97.00
2018-03-29T07:36:12.891Z,96.70
2018-03-29T07:38:39.122Z,96.00
2018-03-29T07:41:05.370Z,96.00
2018-03-29T07:43:31.601Z,95.70
2018-03-29T07:45:57.841Z,95.80
2018-03-29T07:48:24.079Z,95.80
2018-03-29T07:50:50.303Z,95.90
2018-03-29T07:53:17.278Z,95.60
2018-03-29T07:55:43.575Z,95.60
2018-03-29T07:58:09.819Z,95.20
2018-03-29T08:00:36.047Z,94.90
2018-03-29T08:03:02.315Z,94.80
2018-03-29T08:05:29.305Z,95.10
2018-03-29T08:07:55.523Z,95.10
2018-03-29T08:10:22.487Z,95.10
2018-03-29T08:12:48.717Z,95.00
2018-03-29T08:15:15.691Z,95.10
2018-03-29T08:17:41.920Z,95.10
2018-03-29T08:20:08.903Z,94.40
2018-03-29T08:22:35.116Z,94.40
2018-03-29T08:25:02.140Z,93.70
2018-03-29T08:27:28.380Z,93.70
2018-03-29T08:29:54.619Z,93.40
2018-03-29T08:32:20.859Z,93.10
2018-03-29T08:34:47.090Z,93.30
2018-03-29T08:37:13.338Z,93.20
2018-03-29T08:39:39.556Z,92.90
2018-03-29T08:42:05.826Z,93.20
2018-03-29T08:44:32.072Z,93.50
2018-03-29T08:46:58.274Z,93.20
2018-03-29T08:49:24.496Z,93.00
2018-03-29T08:51:50.710Z,92.90
2018-03-29T08:54:22.816Z,92.90
2018-03-29T08:56:49.078Z,92.80
2018-03-29T08:59:15.330Z,92.30
2018-03-29T09:01:41.542Z,91.80
2018-03-29T09:04:07.768Z,91.90
2018-03-29T09:06:34.002Z,92.00
2018-03-29T09:09:00.249Z,91.90
2018-03-29T09:11:26.514Z,91.40
2018-03-29T09:13:52.748Z,91.00
2018-03-29T09:16:18.978Z,91.00
2018-03-29T09:18:45.943Z,90.70
2018-03-29T09:21:12.180Z,90.70
2018-03-29T09:23:38.433Z,91.10
2018-03-29T09:26:04.647Z,91.10
2018-03-29T09:28:30.928Z,91.10
2018-03-29T09:30:57.157Z,91.00
2018-03-29T09:33:23.404Z,91.00
2018-03-29T09:35:49.654Z,90.70
2018-03-29T09:38:15.906Z,90.40
2018-03-29T09:40:42.123Z,90.20
2018-03-29T09:43:08.357Z,90.00
2018-03-29T09:45:34.583Z,89.00
2018-03-29T09:48:00.814Z,89.00
2018-03-29T09:50:27.018Z,89.40
2018-03-29T09:52:53.243Z,88.30
2018-03-29T09:55:19.494Z,87.50
2018-03-29T09:57:45.709Z,87.60
2018-03-29T10:00:12.037Z,88.50
2018-03-29T10:02:38.292Z,88.90
2018-03-29T10:05:04.592Z,88.30
2018-03-29T10:07:33.813Z,88.80
2018-03-29T10:10:00.111Z,89.70
2018-03-29T10:12:26.361Z,89.80
2018-03-29T10:14:52.581Z,89.60
2018-03-29T10:17:18.829Z,89.30
2018-03-29T10:19:45.074Z,89.40
2018-03-29T10:22:11.309Z,89.70
2018-03-29T10:24:37.541Z,89.20
2018-03-29T10:27:04.511Z,87.70
2018-03-29T10:29:31.619Z,87.60
2018-03-29T10:31:57.828Z,87.20
2018-03-29T10:34:24.058Z,87.00
2018-03-29T10:36:50.283Z,87.70
2018-03-29T10:39:16.504Z,88.20
2018-03-29T10:41:42.763Z,88.10
2018-03-29T10:44:09.036Z,86.80
2018-03-29T10:46:36.010Z,85.40
2018-03-29T10:49:02.257Z,85.30
2018-03-29T10:51:28.483Z,85.60
2018-03-29T10:53:55.466Z,83.60
2018-03-29T10:56:21.700Z,83.60
2018-03-29T10:58:47.963Z,82.00
2018-03-29T11:01:14.193Z,80.60
2018-03-29T11:03:40.426Z,81.20
2018-03-29T11:06:06.676Z,80.60
2018-03-29T11:08:32.911Z,80.40
2018-03-29T11:10:59.155Z,81.10
2018-03-29T11:13:25.406Z,82.40
2018-03-29T11:15:51.641Z,82.50
2018-03-29T11:18:17.889Z,81.90
2018-03-29T11:20:44.144Z,81.30
2018-03-29T11:23:10.403Z,80.50
2018-03-29T11:25:36.607Z,78.40
2018-03-29T11:28:02.869Z,75.40
2018-03-29T11:30:29.103Z,74.50
2018-03-29T11:32:55.331Z,74.60
2018-03-29T11:35:21.573Z,75.00
2018-03-29T11:37:47.807Z,76.40
2018-03-29T11:40:14.051Z,76.80
2018-03-29T11:42:40.276Z,78.40
2018-03-29T11:45:06.543Z,79.10
2018-03-29T11:47:32.782Z,79.50
2018-03-29T11:49:59.021Z,79.40
2018-03-29T11:52:25.264Z,81.00
2018-03-29T11:54:51.492Z,81.40
2018-03-29T11:57:17.765Z,81.20
2018-03-29T11:59:44.001Z,81.40
2018-03-29T12:02:10.208Z,81.80
2018-03-29T12:04:36.479Z,81.20
2018-03-29T12:07:02.733Z,81.60
2018-03-29T12:09:28.968Z,81.10
2018-03-29T12:11:55.233Z,81.00
2018-03-29T12:14:22.197Z,81.90
2018-03-29T12:16:49.211Z,82.20
2018-03-29T12:19:15.392Z,82.10
2018-03-29T12:21:41.685Z,81.90
2018-03-29T12:24:07.979Z,79.40
2018-03-29T12:26:34.209Z,76.80
2018-03-29T12:29:01.206Z,73.90
2018-03-29T12:31:27.443Z,73.80
2018-03-29T12:33:53.685Z,69.60
2018-03-29T12:36:19.931Z,68.10
2018-03-29T12:38:46.169Z,69.50
2018-03-29T12:41:12.394Z,71.40
2018-03-29T12:43:38.658Z,72.00
2018-03-29T12:46:04.904Z,72.30
2018-03-29T12:48:31.889Z,74.60
2018-03-29T12:50:58.141Z,74.60
2018-03-29T12:53:24.356Z,74.80
2018-03-29T12:55:50.598Z,75.20
2018-03-29T12:58:16.830Z,74.80
2018-03-29T13:00:43.069Z,74.40
2018-03-29T13:03:09.292Z,75.90
2018-03-29T13:05:35.557Z,75.20
2018-03-29T13:08:01.799Z,73.20
2018-03-29T13:10:28.052Z,73.60
2018-03-29T13:12:54.302Z,72.60
2018-03-29T13:15:21.306Z,72.20
2018-03-29T13:17:47.536Z,72.20
2018-03-29T13:20:13.789Z,73.50
2018-03-29T13:22:40.014Z,73.40
2018-03-29T13:25:06.346Z,73.30
2018-03-29T13:27:32.588Z,71.80
2018-03-29T13:29:59.661Z,71.30
2018-03-29T13:32:25.913Z,71.30
2018-03-29T13:34:52.115Z,71.80
2018-03-29T13:37:19.084Z,72.20
2018-03-29T13:39:46.027Z,72.70
2018-03-29T13:42:13.008Z,72.40
2018-03-29T13:44:39.298Z,72.30
2018-03-29T13:47:05.549Z,73.00
2018-03-29T13:49:31.817Z,73.30
2018-03-29T13:51:58.800Z,74.90
2018-03-29T13:54:25.059Z,74.90
2018-03-29T13:56:51.321Z,75.50
2018-03-29T13:59:17.579Z,75.70
2018-03-29T14:01:43.818Z,74.70
2018-03-29T14:04:10.061Z,74.80
2018-03-29T14:06:36.290Z,75.40
2018-03-29T14:09:02.596Z,75.70
2018-03-29T14:11:28.818Z,75.40
2018-03-29T14:13:55.066Z,75.60
2018-03-29T14:16:21.327Z,76.40
2018-03-29T14:18:47.571Z,76.80
2018-03-29T14:21:14.549Z,76.70
2018-03-29T14:23:40.809Z,76.70
2018-03-29T14:26:07.055Z,76.70
2018-03-29T14:28:34.051Z,78.70
2018-03-29T14:31:00.304Z,78.60
2018-03-29T14:33:26.535Z,79.20
2018-03-29T14:35:52.768Z,80.00
2018-03-29T14:38:19.043Z,81.40
2018-03-29T14:40:45.316Z,81.70
2018-03-29T14:43:11.577Z,81.70
2018-03-29T14:45:37.827Z,82.50
2018-03-29T14:48:04.114Z,83.60
2018-03-29T14:50:30.378Z,84.50
2018-03-29T14:52:57.371Z,85.30
2018-03-29T14:55:23.639Z,85.30
2018-03-29T14:57:49.890Z,85.70
2018-03-29T15:00:16.893Z,86.40
2018-03-29T15:02:43.859Z,87.20
2018-03-29T15:05:10.136Z,87.20
2018-03-29T15:07:36.363Z,87.70
2018-03-29T15:10:02.626Z,87.60
2018-03-29T15:12:28.908Z,87.50
2018-03-29T15:14:55.866Z,88.10
2018-03-29T15:17:22.857Z,88.40
2018-03-29T15:19:49.116Z,88.30
2018-03-29T15:22:16.094Z,88.00
2018-03-29T15:24:42.309Z,88.00
2018-03-29T15:27:08.584Z,87.70
2018-03-29T15:29:34.826Z,87.40
2018-03-29T15:32:01.050Z,86.90
2018-03-29T15:34:28.056Z,86.40
2018-03-29T15:36:55.045Z,85.30
2018-03-29T15:39:21.290Z,85.20
2018-03-29T15:41:47.541Z,85.50
2018-03-29T15:44:13.814Z,85.60
2018-03-29T15:46:40.810Z,86.40
2018-03-29T15:49:07.056Z,86.30
2018-03-29T15:51:33.347Z,87.10
2018-03-29T15:53:59.565Z,87.30
2018-03-29T15:56:25.803Z,86.30
2018-03-29T15:58:52.059Z,85.80
2018-03-29T16:01:18.343Z,86.20
2018-03-29T16:03:44.600Z,85.90
2018-03-29T16:06:10.832Z,86.20
2018-03-29T16:08:37.091Z,86.20
2018-03-29T16:11:03.328Z,87.20
2018-03-29T16:13:29.567Z,88.20
2018-03-29T16:15:55.830Z,90.00
2018-03-29T16:18:22.059Z,90.70
2018-03-29T16:20:48.309Z,91.00
2018-03-29T16:23:14.554Z,91.10
2018-03-29T16:25:40.832Z,90.90
2018-03-29T16:28:07.087Z,91.00
2018-03-29T16:30:34.070Z,91.30
2018-03-29T16:33:00.321Z,91.30
2018-03-29T16:35:26.581Z,91.50
2018-03-29T16:37:52.832Z,92.20
2018-03-29T16:40:19.072Z,92.50
2018-03-29T16:42:45.335Z,92.80
2018-03-29T16:45:11.581Z,92.90
2018-03-29T16:47:38.583Z,93.20
2018-03-29T16:50:04.845Z,93.20
2018-03-29T16:52:31.075Z,93.50
2018-03-29T16:54:57.320Z,93.70
2018-03-29T16:57:23.554Z,93.80
2018-03-29T16:59:49.796Z,93.90
2018-03-29T17:02:16.049Z,94.00
2018-03-29T17:04:42.277Z,94.00
2018-03-29T17:07:09.247Z,94.00
2018-03-29T17:09:35.787Z,94.10
2018-03-29T17:12:02.049Z,96.70
2018-03-29T17:14:28.300Z,97.20
2018-03-29T17:16:55.145Z,95.10
2018-03-29T17:19:21.558Z,93.90
2018-03-29T17:21:47.800Z,94.00
2018-03-29T17:24:14.028Z,94.90
2018-03-29T17:26:40.247Z,97.00
2018-03-29T17:29:06.522Z,95.10
2018-03-29T17:31:32.785Z,94.20
2018-03-29T17:33:59.046Z,95.00
2018-03-29T17:36:25.394Z,93.80
2018-03-29T17:38:52.385Z,91.80
2018-03-29T17:41:18.669Z,91.80
2018-03-29T17:43:44.908Z,91.90
2018-03-29T17:46:11.230Z,92.20
2018-03-29T17:48:37.558Z,92.70
2018-03-29T17:51:03.844Z,93.00
2018-03-29T17:53:30.198Z,93.40
2018-03-29T17:55:57.202Z,93.80
2018-03-29T17:58:23.800Z,93.80
2018-03-29T18:00:50.062Z,93.50
2018-03-29T18:03:17.078Z,93.80
2018-03-29T18:05:43.371Z,93.80
2018-03-29T18:08:09.628Z,94.00
2018-03-29T18:10:35.900Z,94.10
2018-03-29T18:13:02.273Z,94.00
2018-03-29T18:15:28.599Z,94.10
2018-03-29T18:17:54.983Z,94.50
2018-03-29T18:20:21.328Z,94.90
2018-03-29T18:22:47.571Z,95.20
2018-03-29T18:25:13.857Z,95.40
2018-03-29T18:27:40.189Z,95.50
2018-03-29T18:30:06.444Z,95.60
2018-03-29T18:32:32.750Z,95.70
2018-03-29T18:34:59.071Z,95.80
2018-03-29T18:37:25.388Z,95.80
2018-03-29T18:39:52.381Z,96.60
2018-03-29T18:42:18.679Z,96.30
2018-03-29T18:44:44.986Z,96.50
2018-03-29T18:47:11.310Z,96.60
2018-03-29T18:49:37.603Z,96.70
2018-03-29T18:52:04.341Z,96.80
2018-03-29T18:54:30.657Z,96.90
2018-03-29T18:56:57.001Z,96.90
2018-03-29T18:59:23.304Z,96.90
2018-03-29T19:01:50.885Z,97.10
2018-03-29T19:04:17.934Z,97.20
2018-03-29T19:06:44.975Z,97.30
2018-03-29T19:09:11.363Z,97.30
2018-03-29T19:11:37.676Z,97.30
2018-03-29T19:14:04.700Z,97.40
2018-03-29T19:16:31.013Z,97.40
2018-03-29T19:18:57.371Z,97.30
2018-03-29T19:21:23.737Z,97.40
2018-03-29T19:23:50.142Z,97.70
2018-03-29T19:26:17.466Z,97.90
2018-03-29T19:28:44.504Z,98.70
2018-03-29T19:31:10.797Z,98.30
2018-03-29T19:33:37.116Z,98.40
2018-03-29T19:36:03.497Z,98.50
2018-03-29T19:38:29.801Z,98.60
2018-03-29T19:40:56.146Z,98.70
2018-03-29T19:43:23.239Z,99.00
2018-03-29T19:45:49.803Z,99.10
2018-03-29T19:48:16.149Z,99.00
2018-03-29T19:50:42.503Z,99.10
2018-03-29T19:53:08.851Z,99.30
2018-03-29T19:55:35.177Z,99.50
2018-03-29T19:58:01.463Z,99.70
2018-03-29T20:00:27.755Z,99.80
2018-03-29T20:02:54.938Z,99.90
2018-03-29T20:05:21.324Z,99.90
2018-03-29T20:07:47.568Z,99.90
2018-03-29T20:10:14.622Z,99.90
2018-03-29T20:12:41.653Z,99.90
2018-03-29T20:15:08.027Z,99.90
2018-03-29T20:17:34.301Z,99.90
2018-03-29T20:20:00.700Z,99.90
2018-03-29T20:22:27.049Z,99.90
2018-03-29T20:24:53.302Z,99.90
2018-03-29T20:27:20.349Z,99.90
2018-03-29T20:29:46.610Z,99.90
2018-03-29T20:32:13.686Z,99.90
2018-03-29T20:34:40.028Z,99.90
2018-03-29T20:37:06.331Z,99.90
2018-03-29T20:39:32.603Z,99.90
2018-03-29T20:41:58.898Z,99.90
2018-03-29T20:44:25.251Z,99.90
2018-03-29T20:46:51.556Z,99.90
2018-03-29T20:49:17.804Z,99.90
2018-03-29T20:51:44.113Z,99.90
2018-03-29T20:54:10.382Z,99.90
2018-03-29T20:56:36.692Z,99.90
2018-03-29T20:59:03.002Z,99.90
2018-03-29T21:01:29.323Z,99.90
2018-03-29T21:03:55.629Z,99.90
2018-03-29T21:06:21.904Z,99.90
2018-03-29T21:08:48.226Z,99.90
2018-03-29T21:11:14.531Z,99.90
2018-03-29T21:13:41.556Z,99.90
2018-03-29T21:16:07.847Z,99.90
2018-03-29T21:18:34.864Z,99.90
2018-03-29T21:21:01.123Z,99.90
2018-03-29T21:23:27.453Z,99.90
2018-03-29T21:25:53.654Z,99.90
2018-03-29T21:28:19.911Z,99.90
2018-03-29T21:30:46.198Z,99.90
2018-03-29T21:33:13.189Z,99.90
2018-03-29T21:35:39.440Z,99.90
2018-03-29T21:38:05.735Z,99.90
2018-03-29T21:40:32.733Z,99.90
2018-03-29T21:42:59.005Z,99.90
2018-03-29T21:45:25.257Z,99.90
2018-03-29T21:47:51.529Z,99.90
2018-03-29T21:50:18.551Z,99.90
2018-03-29T21:52:44.803Z,99.90
2018-03-29T21:55:11.104Z,99.90
2018-03-29T21:57:37.307Z,99.90
2018-03-29T22:00:06.245Z,99.90
2018-03-29T22:02:32.517Z,99.90
2018-03-29T22:04:58.785Z,99.90
2018-03-29T22:07:25.735Z,99.90
2018-03-29T22:09:51.978Z,99.90
2018-03-29T22:12:18.933Z,99.90
2018-03-29T22:14:45.237Z,99.90
2018-03-29T22:17:11.425Z,99.90
2018-03-29T22:19:38.470Z,99.90
2018-03-29T22:22:04.743Z,99.90
2018-03-29T22:24:30.964Z,99.90
2018-03-29T22:26:57.932Z,99.90
2018-03-29T22:29:24.912Z,99.90
2018-03-29T22:31:51.162Z,99.90
2018-03-29T22:34:17.450Z,99.90
2018-03-29T22:36:44.430Z,99.90
2018-03-29T22:39:11.424Z,99.90
2018-03-29T22:41:37.658Z,99.90
2018-03-29T22:44:03.919Z,99.90
2018-03-29T22:46:30.160Z,99.90
2018-03-29T22:48:56.380Z,99.90
2018-03-29T22:51:22.626Z,99.90
2018-03-29T22:53:48.880Z,99.90
2018-03-29T22:56:15.156Z,99.90
2018-03-29T22:58:41.372Z,99.90
2018-03-29T23:01:07.608Z,99.90
2018-03-29T23:03:33.828Z,99.90
2018-03-29T23:06:00.098Z,99.90
2018-03-29T23:08:26.350Z,99.90
2018-03-29T23:10:52.572Z,99.90
2018-03-29T23:13:18.815Z,99.90
2018-03-29T23:15:45.068Z,99.90
2018-03-29T23:18:11.300Z,99.90
2018-03-29T23:20:39.000Z,99.90
2018-03-29T23:23:05.964Z,99.90
2018-03-29T23:25:32.945Z,99.90
2018-03-29T23:27:59.172Z,99.90
2018-03-29T23:30:25.416Z,99.90
2018-03-29T23:32:51.638Z,99.90
2018-03-29T23:35:18.595Z,99.90
2018-03-29T23:37:45.585Z,99.90
2018-03-29T23:40:11.785Z,99.90
2018-03-29T23:42:38.004Z,99.90
2018-03-29T23:45:04.231Z,99.90
2018-03-29T23:47:30.447Z,99.90
2018-03-29T23:49:56.657Z,99.90
2018-03-29T23:52:23.595Z,99.90
2018-03-29T23:54:49.834Z,99.90
2018-03-29T23:57:16.038Z,99.90
2018-03-29T23:59:42.259Z,99.90
